Springfield, Illinois
Current Conditions -  °F | °C
As of 7:52 AM on Sunday 21 Dec 2014 (Local Time) from KSPI Reporting Station
Overcast Overcast  
Wind Chill: -1°   Ceiling: 2500
Heat Index:   Visibility: 10mi
Dew Point: -1°   Wind: 13mph
Humidity: 76%   Direction: 170°S
Pressure: 30.21"   Gusts: NA
Location:  39.8°N, 89.64°W
Report Text: KSPI 211352Z 17011KT 10SM OVC025 03/M01 A3021 RMK AO2 SLP233 T00331006
Loading
Personal Weather Stations






























Interactive Weather Map New forecast layout! Learn more

10-Day Weather Forecast

Advertisements
Track Severe Weather on mobile